Time;durP1;ratioP1;P1;durP2;ratioP2;P2;SDS_P1;SDS_P2;PMS_P1;PMS_P2;Temp;Humidity;BMP_temperature;BMP_pressure;BME280_temperature;BME280_humidity;BME280_pressure;Samples;Min_cycle;Max_cycle;Signal;HPM_P1;HPM_P2
2023/01/23 00:03:35;;;;;;;3.83;3.28;;;;;;;-4.45;90.61;103476.75;10422895;28;20053;-86
2023/01/23 00:08:38;;;;;;;4.15;3.33;;;;;;;-4.74;90.31;103477.03;10425776;28;20041;-84
2023/01/23 00:13:40;;;;;;;2.70;2.20;;;;;;;-4.79;89.75;103459.59;10443167;28;20142;-84
2023/01/23 00:18:42;;;;;;;4.65;3.45;;;;;;;-4.83;90.12;103461.66;10413770;28;20054;-84
2023/01/23 00:23:47;;;;;;;3.13;2.83;;;;;;;-4.58;90.00;103466.06;10412277;28;20058;-84
2023/01/23 00:28:49;;;;;;;3.45;2.90;;;;;;;-4.55;89.96;103458.66;10413467;28;20029;-85
2023/01/23 00:33:56;;;;;;;3.53;3.03;;;;;;;-4.50;89.46;103454.81;10442095;28;20060;-83
2023/01/23 00:38:58;;;;;;;3.85;3.17;;;;;;;-4.36;89.49;103460.81;10419422;28;20049;-84
2023/01/23 00:44:01;;;;;;;4.53;3.30;;;;;;;-4.52;88.85;103459.38;10419243;28;20037;-83
2023/01/23 00:49:03;;;;;;;4.28;3.38;;;;;;;-4.62;88.71;103460.09;10428931;28;20403;-84
2023/01/23 00:54:05;;;;;;;5.25;3.63;;;;;;;-4.50;89.30;103452.13;10427204;28;20046;-82
2023/01/23 00:59:07;;;;;;;5.28;3.60;;;;;;;-4.72;89.36;103458.19;10417830;28;20045;-82
2023/01/23 01:04:10;;;;;;;5.13;3.72;;;;;;;-4.81;89.79;103453.50;10428328;28;20049;-81
2023/01/23 01:09:12;;;;;;;6.93;4.07;;;;;;;-4.83;90.18;103453.63;10417093;28;20041;-81
2023/01/23 01:14:14;;;;;;;6.78;4.82;;;;;;;-4.52;90.21;103454.88;10443307;28;20037;-81
2023/01/23 01:19:17;;;;;;;7.88;4.80;;;;;;;-4.69;90.21;103432.00;10449143;28;20037;-81
2023/01/23 01:24:20;;;;;;;6.25;4.03;;;;;;;-4.86;90.07;103422.56;10449940;28;20432;-82
2023/01/23 01:29:22;;;;;;;8.85;5.38;;;;;;;-5.00;90.48;103411.13;10444678;28;20040;-84
2023/01/23 01:34:25;;;;;;;6.78;4.47;;;;;;;-4.96;91.08;103410.78;10431353;28;20137;-82
2023/01/23 01:39:27;;;;;;;9.27;5.40;;;;;;;-4.93;91.07;103417.75;10418333;28;20065;-84
2023/01/23 01:44:59;;;;;;;8.73;5.07;;;;;;;-4.56;91.47;103426.63;10440570;28;20054;-83
2023/01/23 01:50:03;;;;;;;8.30;4.97;;;;;;;-4.56;90.81;103408.72;10427765;28;20416;-84
2023/01/23 01:55:06;;;;;;;8.13;5.20;;;;;;;-4.70;90.84;103419.59;10442250;28;20072;-84
2023/01/23 02:00:14;;;;;;;9.88;5.97;;;;;;;-4.70;90.54;103416.06;10431127;28;20038;-84
2023/01/23 02:05:29;;;;;;;8.60;5.43;;;;;;;-4.99;91.38;103419.06;10475922;28;20049;-82
2023/01/23 02:10:33;;;;;;;10.65;5.43;;;;;;;-4.69;91.85;103407.03;10437563;28;20049;-84
2023/01/23 02:15:35;;;;;;;9.07;5.53;;;;;;;-4.71;91.63;103406.31;10450401;28;20049;-84
2023/01/23 02:20:38;;;;;;;11.07;6.35;;;;;;;-4.74;91.86;103404.72;10439882;28;20037;-84
2023/01/23 02:25:44;;;;;;;10.82;6.40;;;;;;;-4.57;91.27;103390.94;10417718;28;20522;-84
2023/01/23 02:30:51;;;;;;;11.85;6.13;;;;;;;-4.73;90.88;103401.06;10446629;28;20463;-83
2023/01/23 02:35:58;;;;;;;11.63;6.43;;;;;;;-4.78;90.92;103403.25;10431856;28;20422;-83
2023/01/23 02:41:02;;;;;;;10.32;6.13;;;;;;;-4.69;90.78;103418.63;10428338;28;20042;-83
2023/01/23 02:46:08;;;;;;;12.25;7.30;;;;;;;-4.68;91.52;103428.41;10437653;28;20040;-84
2023/01/23 02:51:11;;;;;;;14.55;7.68;;;;;;;-4.46;91.25;103418.75;10446611;28;20420;-85
2023/01/23 02:56:14;;;;;;;12.25;6.90;;;;;;;-4.37;90.88;103413.53;10463233;28;20400;-84
2023/01/23 03:01:17;;;;;;;12.45;6.65;;;;;;;-4.54;90.64;103419.31;10431913;28;20042;-83
2023/01/23 03:06:19;;;;;;;12.77;7.22;;;;;;;-4.53;90.34;103417.47;10446262;28;20514;-84
2023/01/23 03:11:26;;;;;;;11.25;6.53;;;;;;;-4.51;90.06;103410.19;10445045;28;20048;-83
2023/01/23 03:16:28;;;;;;;13.98;6.93;;;;;;;-4.64;89.91;103400.41;10430083;28;20064;-84
2023/01/23 03:21:32;;;;;;;9.35;5.90;;;;;;;-4.77;90.03;103396.91;10420679;28;20053;-83
2023/01/23 03:26:40;;;;;;;11.63;6.38;;;;;;;-4.73;90.12;103395.72;10413125;28;20053;-82
2023/01/23 03:31:46;;;;;;;;;;;;;;;-4.81;90.83;103391.91;10428798;28;20050;-82
2023/01/23 03:36:52;;;;;;;14.93;8.32;;;;;;;-4.71;90.64;103400.94;10444713;28;19927;-83
2023/01/23 03:41:55;;;;;;;13.35;7.25;;;;;;;-4.66;91.04;103413.06;10441137;28;20041;-83
2023/01/23 03:47:00;;;;;;;12.05;6.75;;;;;;;-4.49;90.93;103414.47;10418248;28;20038;-83
2023/01/23 03:52:03;;;;;;;15.80;8.00;;;;;;;-4.70;90.64;103410.69;10396521;28;20049;-84
2023/01/23 03:57:07;;;;;;;14.27;7.95;;;;;;;-4.62;91.27;103409.19;10448574;28;20049;-84
2023/01/23 04:02:36;;;;;;;16.20;8.05;;;;;;;-4.28;91.83;103414.69;10454284;28;20551;-85
2023/01/23 04:07:38;;;;;;;16.52;8.18;;;;;;;-4.27;90.99;103406.53;10431204;28;20041;-83
2023/01/23 04:13:06;;;;;;;15.93;8.30;;;;;;;-4.44;91.06;103401.59;10442776;28;20045;-82
2023/01/23 04:18:08;;;;;;;15.93;7.93;;;;;;;-4.50;90.69;103396.69;10443643;28;20037;-81
2023/01/23 04:23:14;;;;;;;17.25;8.05;;;;;;;-4.51;91.54;103386.06;10428371;28;20049;-82
2023/01/23 04:28:19;;;;;;;15.20;7.18;;;;;;;-4.53;91.72;103390.69;10435026;28;20173;-85
2023/01/23 04:33:24;;;;;;;12.75;7.78;;;;;;;-4.76;91.72;103401.28;10417515;28;20045;-84
2023/01/23 04:38:32;;;;;;;16.17;8.15;;;;;;;-4.78;92.04;103400.56;10450702;28;20419;-85
2023/01/23 04:43:48;;;;;;;13.13;7.20;;;;;;;-4.74;92.76;103399.34;10457382;28;20693;-85
2023/01/23 04:48:51;;;;;;;14.50;7.75;;;;;;;-4.73;93.00;103406.41;10436776;28;20616;-83
2023/01/23 04:53:53;;;;;;;12.20;6.88;;;;;;;-4.57;93.61;103393.59;10438348;28;20048;-82
2023/01/23 04:58:59;;;;;;;14.52;7.30;;;;;;;-4.49;93.09;103395.72;10441478;28;20041;-82
2023/01/23 05:04:20;;;;;;;13.00;6.80;;;;;;;-4.50;93.25;103366.38;10428054;28;20053;-85
2023/01/23 05:09:23;;;;;;;12.57;7.30;;;;;;;-4.80;93.00;103375.72;10446659;28;20053;-84
2023/01/23 05:14:28;;;;;;;16.35;7.78;;;;;;;-5.01;93.00;103380.84;10419614;28;20053;-85
2023/01/23 05:19:30;;;;;;;13.63;6.95;;;;;;;-5.04;93.71;103382.84;10433258;28;20041;-85
2023/01/23 05:24:34;;;;;;;11.73;6.78;;;;;;;-5.09;93.84;103388.53;10409541;28;20049;-85
2023/01/23 05:29:38;;;;;;;15.35;7.72;;;;;;;-5.06;94.76;103387.47;10412612;28;20416;-85
2023/01/23 05:34:49;;;;;;;16.27;7.95;;;;;;;-5.07;94.66;103381.25;10385709;28;20052;-83
2023/01/23 05:39:56;;;;;;;17.80;8.63;;;;;;;-5.09;95.14;103382.34;10390593;28;20442;-84
2023/01/23 05:45:00;;;;;;;16.45;9.07;;;;;;;-5.01;95.30;103377.31;10392059;28;20044;-87
2023/01/23 05:50:08;;;;;;;17.02;8.18;;;;;;;-4.97;95.49;103390.34;10408579;28;20064;-85
2023/01/23 05:55:12;;;;;;;17.90;7.78;;;;;;;-5.00;95.68;103393.25;10423165;28;20037;-84
2023/01/23 06:00:16;;;;;;;14.68;8.57;;;;;;;-4.90;95.62;103390.72;10406918;28;20057;-84
2023/01/23 06:05:39;;;;;;;17.65;8.65;;;;;;;-4.84;95.80;103387.63;10425111;28;20045;-84
2023/01/23 06:10:47;;;;;;;17.67;9.18;;;;;;;-4.88;95.61;103396.84;10446950;28;20064;-85
2023/01/23 06:15:51;;;;;;;18.83;9.18;;;;;;;-4.83;95.78;103394.69;10441164;28;20061;-85
2023/01/23 06:21:00;;;;;;;19.20;8.45;;;;;;;-4.91;95.55;103392.56;10431380;28;20037;-85
2023/01/23 06:26:03;;;;;;;17.40;8.45;;;;;;;-4.90;95.81;103401.44;10446709;28;20061;-85
2023/01/23 06:31:09;;;;;;;18.73;8.57;;;;;;;-4.89;95.49;103395.97;10447818;28;20045;-85
2023/01/23 06:36:33;;;;;;;20.50;9.18;;;;;;;-4.90;95.55;103394.28;10432663;28;20048;-84
2023/01/23 06:41:35;;;;;;;19.98;9.07;;;;;;;-4.88;95.67;103388.78;10429587;28;20061;-84
2023/01/23 06:46:40;;;;;;;22.13;10.13;;;;;;;-4.88;96.16;103400.38;10423869;28;20054;-86
2023/01/23 06:51:42;;;;;;;21.48;9.38;;;;;;;-4.94;95.81;103398.16;10411254;28;20045;-84
2023/01/23 06:56:48;;;;;;;19.92;9.27;;;;;;;-4.94;96.17;103408.00;10402477;28;20041;-85
2023/01/23 07:01:50;;;;;;;20.40;9.02;;;;;;;-4.96;96.06;103404.59;10444832;28;20041;-84
2023/01/23 07:07:00;;;;;;;23.75;9.70;;;;;;;-4.96;96.23;103407.25;10418687;28;20145;-86
2023/01/23 07:12:04;;;;;;;19.27;9.88;;;;;;;-4.91;96.59;103413.97;10405128;28;20045;-85
2023/01/23 07:17:07;;;;;;;20.67;8.98;;;;;;;-4.91;96.86;103400.59;10448937;28;20044;-85
2023/01/23 07:22:10;;;;;;;22.40;9.10;;;;;;;-4.89;96.27;103392.44;10395710;28;20045;-85
2023/01/23 07:27:13;;;;;;;19.90;8.77;;;;;;;-4.79;96.38;103390.81;10405824;28;20046;-84
2023/01/23 07:32:15;;;;;;;21.63;9.38;;;;;;;-4.80;96.20;103381.06;10411300;28;20033;-84
2023/01/23 07:37:18;;;;;;;24.67;9.75;;;;;;;-4.79;96.25;103369.38;10446280;28;20046;-85
2023/01/23 07:42:20;;;;;;;26.30;10.32;;;;;;;-4.76;95.92;103371.84;10446354;28;20124;-85
2023/01/23 07:47:22;;;;;;;23.45;10.07;;;;;;;-4.74;96.23;103372.56;10439772;28;20045;-86
2023/01/23 07:52:24;;;;;;;27.38;10.13;;;;;;;-4.67;95.74;103371.16;10445540;28;20500;-85
2023/01/23 07:57:26;;;;;;;20.63;9.90;;;;;;;-4.66;96.26;103364.84;10444999;28;20508;-85
2023/01/23 08:02:28;;;;;;;23.52;9.68;;;;;;;-4.66;95.84;103351.44;10425317;28;20048;-84
2023/01/23 08:07:31;;;;;;;23.95;10.23;;;;;;;-4.64;95.91;103362.91;10452961;28;20476;-85
2023/01/23 08:12:33;;;;;;;22.35;9.85;;;;;;;-4.57;95.53;103356.09;10453972;28;20191;-84
2023/01/23 08:17:35;;;;;;;25.00;10.57;;;;;;;-4.52;95.87;103363.78;10452045;28;20049;-85
2023/01/23 08:22:39;;;;;;;22.65;9.80;;;;;;;-4.47;95.70;103363.44;10450743;28;20049;-86
2023/01/23 08:27:42;;;;;;;22.58;11.02;;;;;;;-4.42;95.63;103355.91;10452860;28;20037;-85
2023/01/23 08:32:44;;;;;;;28.02;11.35;;;;;;;-4.33;95.53;103365.94;10434819;28;20548;-85
2023/01/23 08:37:47;;;;;;;24.98;11.02;;;;;;;-4.31;95.05;103364.84;10418034;28;20048;-86
2023/01/23 08:42:49;;;;;;;23.23;10.80;;;;;;;-4.29;94.98;103362.06;10425118;28;20055;-84
2023/01/23 08:47:51;;;;;;;27.83;11.40;;;;;;;-4.31;94.90;103353.28;10439696;28;20041;-87
2023/01/23 08:52:54;;;;;;;27.42;12.32;;;;;;;-4.26;94.88;103353.78;10445095;28;20056;-87
2023/01/23 08:57:57;;;;;;;22.05;9.20;;;;;;;-4.26;94.91;103365.34;10442376;28;20053;-78
2023/01/23 09:03:00;;;;;;;25.00;9.07;;;;;;;-4.31;94.50;103370.22;10450357;28;20049;-80
2023/01/23 09:08:02;;;;;;;23.63;9.73;;;;;;;-4.26;94.84;103356.44;10414297;28;20512;-78
2023/01/23 09:13:05;;;;;;;18.40;8.18;;;;;;;-4.29;94.67;103367.41;10433231;28;20435;-76
2023/01/23 09:18:07;;;;;;;22.27;8.40;;;;;;;-4.23;94.71;103366.09;10445566;28;20048;-80
2023/01/23 09:23:10;;;;;;;18.75;7.18;;;;;;;-4.36;94.63;103366.16;10460560;28;20571;-83
2023/01/23 09:28:12;;;;;;;18.08;7.70;;;;;;;-4.38;94.75;103366.28;10440967;28;20037;-79
2023/01/23 09:33:16;;;;;;;20.40;8.48;;;;;;;-4.38;95.06;103371.63;10453663;28;20046;-79
2023/01/23 09:38:19;;;;;;;22.33;8.35;;;;;;;-4.43;94.86;103365.78;10442505;28;20421;-80
2023/01/23 09:43:30;;;;;;;22.80;8.52;;;;;;;-4.36;95.19;103358.13;10404927;28;20053;-77
2023/01/23 09:48:43;;;;;;;23.25;9.00;;;;;;;-4.39;95.28;103363.72;10428722;28;20049;-78
2023/01/23 09:53:46;;;;;;;23.15;8.90;;;;;;;-4.35;95.23;103360.66;10432288;28;20061;-76
2023/01/23 09:59:01;;;;;;;18.80;8.52;;;;;;;-4.40;95.01;103360.19;10441638;28;20546;-77
2023/01/23 10:04:03;;;;;;;15.48;6.85;;;;;;;-4.42;95.27;103339.84;10431894;28;20037;-81
2023/01/23 10:09:43;;;;;;;15.82;7.30;;;;;;;-4.42;94.94;103339.84;10441518;28;20041;-79
2023/01/23 10:15:06;;;;;;;17.15;7.18;;;;;;;-4.44;94.88;103326.56;10448105;28;20053;-79
2023/01/23 10:20:18;;;;;;;14.52;6.78;;;;;;;-4.39;95.15;103326.19;10455428;28;20046;-79
2023/01/23 10:25:29;;;;;;;15.25;6.78;;;;;;;-4.27;95.35;103325.25;10448100;28;20064;-79
2023/01/23 10:30:34;;;;;;;20.73;6.35;;;;;;;-4.21;94.88;103326.59;10416731;28;20053;-82
2023/01/23 10:35:52;;;;;;;14.65;6.15;;;;;;;-4.29;94.87;103324.53;10443614;28;20053;-83
2023/01/23 10:41:12;;;;;;;15.93;6.15;;;;;;;-4.36;95.07;103308.03;10422087;28;20448;-82
2023/01/23 10:46:18;;;;;;;14.98;5.75;;;;;;;-4.37;94.87;103310.84;10457647;28;20045;-81
2023/01/23 10:51:36;;;;;;;13.35;5.78;;;;;;;-4.36;95.17;103304.50;10454709;28;20046;-81
2023/01/23 10:56:54;;;;;;;13.65;6.32;;;;;;;-4.46;95.05;103303.53;10442064;28;20421;-83
2023/01/23 11:02:20;;;;;;;12.80;6.93;;;;;;;-4.40;95.37;103300.38;10423294;28;20571;-81
2023/01/23 11:07:28;;;;;;;16.88;7.05;;;;;;;-4.44;95.71;103298.91;10432121;28;20457;-82
2023/01/23 11:12:33;;;;;;;15.25;6.60;;;;;;;-4.44;95.91;103288.19;10427437;28;20042;-80
2023/01/23 11:17:35;;;;;;;15.60;6.95;;;;;;;-4.42;95.92;103297.81;10429244;28;20314;-79
2023/01/23 11:22:40;;;;;;;14.15;6.10;;;;;;;-4.42;95.44;103295.13;10416893;28;20041;-82
2023/01/23 11:27:56;;;;;;;12.95;5.70;;;;;;;-4.42;94.98;103291.59;10442034;28;20037;-81
2023/01/23 11:33:07;;;;;;;15.63;5.60;;;;;;;-4.46;95.39;103271.38;10441678;28;20415;-83
2023/01/23 11:38:12;;;;;;;10.95;5.55;;;;;;;-4.46;95.04;103269.53;10436181;28;20050;-82
2023/01/23 11:43:14;;;;;;;11.40;5.72;;;;;;;-4.43;94.88;103266.63;10423878;28;20405;-82
2023/01/23 11:48:25;;;;;;;11.30;4.93;;;;;;;-4.33;94.57;103281.03;10424721;28;20041;-81
2023/01/23 11:53:34;;;;;;;9.30;4.97;;;;;;;-4.33;94.38;103264.09;10437068;28;20041;-80
2023/01/23 11:59:01;;;;;;;8.98;4.75;;;;;;;-4.28;94.41;103275.31;10429955;28;20052;-86
2023/01/23 12:04:06;;;;;;;11.50;5.30;;;;;;;-4.25;94.01;103267.03;10443194;28;20042;-85
2023/01/23 12:09:15;;;;;;;12.18;5.25;;;;;;;-4.19;93.61;103271.03;10435319;28;20048;-81
2023/01/23 12:15:02;;;;;;;9.65;4.45;;;;;;;-4.18;93.19;103272.75;10417197;28;20527;-84
2023/01/23 12:20:04;;;;;;;9.82;4.80;;;;;;;-4.18;93.12;103270.91;10420228;28;20049;-83
2023/01/23 12:25:25;;;;;;;10.57;5.18;;;;;;;-4.12;92.16;103266.91;10422609;28;20046;-79
2023/01/23 12:31:01;;;;;;;10.57;4.50;;;;;;;-4.14;91.69;103264.38;10406871;28;20420;-80
2023/01/23 12:36:09;;;;;;;11.82;4.95;;;;;;;-4.06;91.52;103250.34;10417054;28;20048;-79
2023/01/23 12:41:19;;;;;;;9.45;4.93;;;;;;;-3.99;91.07;103247.06;10408119;28;20075;-81
2023/01/23 12:46:25;;;;;;;12.30;5.30;;;;;;;-3.96;90.54;103249.50;10406746;28;20038;-77
2023/01/23 12:51:38;;;;;;;8.10;4.22;;;;;;;-3.98;90.58;103251.44;10420750;28;20065;-78
2023/01/23 12:56:41;;;;;;;6.10;3.80;;;;;;;-4.11;90.44;103252.53;10422080;28;20042;-80
2023/01/23 13:02:07;;;;;;;8.23;4.55;;;;;;;-4.23;90.56;103248.97;10411198;28;20045;-79
2023/01/23 13:07:30;;;;;;;5.47;3.30;;;;;;;-4.28;91.26;103248.50;10424063;28;20053;-79
2023/01/23 13:12:32;;;;;;;8.75;4.30;;;;;;;-4.37;91.18;103236.66;10433495;28;20067;-77
2023/01/23 13:17:35;;;;;;;6.38;4.00;;;;;;;-4.33;91.53;103248.00;10431013;28;20037;-78
2023/01/23 13:22:37;;;;;;;7.18;4.32;;;;;;;-4.23;91.55;103254.34;10448543;28;20041;-79
2023/01/23 13:27:58;;;;;;;10.27;4.45;;;;;;;-4.16;91.64;103250.22;10430505;28;20409;-79
2023/01/23 13:33:06;;;;;;;9.85;4.32;;;;;;;-4.28;91.42;103246.66;10417575;28;20050;-78
2023/01/23 13:38:20;;;;;;;7.65;3.90;;;;;;;-4.28;91.48;103238.63;10440368;28;20507;-77
2023/01/23 13:44:03;;;;;;;6.25;3.50;;;;;;;-4.20;91.97;103232.66;10440515;28;20551;-79
2023/01/23 14:00:14;;;;;;;7.35;3.83;;;;;;;-4.17;91.68;103232.41;10430156;28;20542;-76
2023/01/23 14:05:23;;;;;;;6.88;4.15;;;;;;;-4.14;91.46;103224.16;10434318;28;20500;-75
2023/01/23 14:10:29;;;;;;;5.15;3.17;;;;;;;-4.09;91.57;103224.63;10415261;28;20049;-75
2023/01/23 14:21:19;;;;;;;6.43;3.47;;;;;;;-4.30;91.06;103231.69;10436607;28;20050;-76
2023/01/23 14:26:27;;;;;;;5.68;3.08;;;;;;;-4.48;90.79;103228.63;10413896;28;20054;-75
2023/01/23 14:31:54;;;;;;;4.65;2.75;;;;;;;-4.47;91.25;103232.16;10413732;28;20053;-74
2023/01/23 14:37:05;;;;;;;6.00;2.47;;;;;;;-4.41;91.54;103235.19;10410368;28;20046;-75
2023/01/23 14:42:07;;;;;;;6.35;3.28;;;;;;;-4.46;90.93;103231.16;10421955;28;20042;-72
2023/01/23 14:47:15;;;;;;;4.78;2.55;;;;;;;-4.51;91.73;103219.94;10416217;28;20447;-75
2023/01/23 14:52:24;;;;;;;6.47;2.90;;;;;;;-4.61;91.76;103226.03;10433360;28;20518;-73
2023/01/23 14:57:27;;;;;;;6.85;3.50;;;;;;;-4.64;91.76;103222.72;10432361;28;20053;-79
2023/01/23 15:02:30;;;;;;;5.40;2.95;;;;;;;-4.68;92.34;103223.94;10429969;28;20053;-79
2023/01/23 15:07:33;;;;;;;6.18;3.10;;;;;;;-4.79;92.42;103205.16;10414401;28;20061;-78
2023/01/23 15:13:08;;;;;;;5.97;3.22;;;;;;;-4.84;92.42;103202.84;10418981;28;20046;-78
2023/01/23 15:18:37;;;;;;;6.72;3.35;;;;;;;-4.94;92.73;103205.34;10410604;28;20053;-77
2023/01/23 15:23:39;;;;;;;6.45;3.60;;;;;;;-4.89;92.91;103200.50;10436403;28;20049;-82
2023/01/23 15:28:53;;;;;;;8.50;4.03;;;;;;;-4.87;93.02;103208.41;10423375;28;20045;-79
2023/01/23 15:34:12;;;;;;;8.60;4.68;;;;;;;-4.97;93.45;103215.44;10411231;28;20495;-81
2023/01/23 15:39:17;;;;;;;9.52;4.15;;;;;;;-5.08;93.61;103208.22;10423318;28;20056;-89
2023/01/23 15:44:21;;;;;;;9.18;4.40;;;;;;;-5.19;94.04;103211.72;10430656;28;20049;-86
2023/01/23 15:49:24;;;;;;;8.05;4.18;;;;;;;-5.35;93.83;103199.59;10432691;28;20041;-83
2023/01/23 15:54:34;;;;;;;9.27;4.07;;;;;;;-5.42;94.54;103204.53;10430822;28;20049;-84
2023/01/23 15:59:40;;;;;;;8.88;4.55;;;;;;;-5.50;94.77;103191.72;10426097;28;20041;-86
2023/01/23 16:04:47;;;;;;;8.32;3.45;;;;;;;-5.53;94.75;103200.00;10438270;28;20041;-86
2023/01/23 16:09:55;;;;;;;8.25;3.70;;;;;;;-5.44;94.98;103190.41;10404429;28;20063;-86
2023/01/23 16:14:57;;;;;;;8.45;4.53;;;;;;;-5.46;95.22;103203.91;10402985;28;20072;-86
2023/01/23 16:19:59;;;;;;;5.72;3.13;;;;;;;-5.39;95.35;103185.56;10404121;28;20412;-86
2023/01/23 16:25:02;;;;;;;6.30;2.63;;;;;;;-5.34;95.22;103187.94;10408856;28;20049;-86
2023/01/23 16:30:05;;;;;;;5.07;2.95;;;;;;;-5.19;94.55;103171.56;10416248;28;20064;-87
2023/01/23 16:35:09;;;;;;;4.38;2.72;;;;;;;-5.13;94.41;103156.00;10416678;28;20038;-87
2023/01/23 16:40:27;;;;;;;7.43;3.65;;;;;;;-5.06;94.09;103157.22;10420604;28;20045;-88
2023/01/23 16:45:31;;;;;;;7.05;3.78;;;;;;;-4.96;94.00;103148.38;10415608;28;20042;-87
2023/01/23 16:50:40;;;;;;;10.48;5.05;;;;;;;-5.12;93.59;103152.34;10411743;28;20578;-88
2023/01/23 16:55:46;;;;;;;8.07;3.95;;;;;;;-5.21;94.05;103132.47;10410597;28;20508;-88
2023/01/23 17:00:49;;;;;;;6.38;3.55;;;;;;;-5.25;94.16;103137.22;10409898;28;20049;-86
2023/01/23 17:05:51;;;;;;;8.73;4.13;;;;;;;-5.22;94.22;103131.63;10410165;28;20412;-87
2023/01/23 17:11:00;;;;;;;5.90;3.22;;;;;;;-5.37;94.47;103127.47;10411647;28;20069;-88
2023/01/23 17:16:07;;;;;;;4.93;3.17;;;;;;;-5.47;94.81;103111.25;10394579;28;20531;-87
2023/01/23 17:21:16;;;;;;;5.53;3.25;;;;;;;-5.57;94.94;103117.38;10411297;28;20054;-87
2023/01/23 17:26:19;;;;;;;6.43;4.07;;;;;;;-5.65;94.99;103125.16;10409937;28;20058;-87
2023/01/23 17:31:23;;;;;;;8.07;3.80;;;;;;;-5.65;95.25;103123.31;10409721;28;20496;-86
2023/01/23 17:36:25;;;;;;;7.80;4.75;;;;;;;-5.68;94.64;103128.91;10408270;28;20061;-85
2023/01/23 17:41:27;;;;;;;7.72;3.83;;;;;;;-5.63;95.07;103134.75;10408207;28;20052;-86
2023/01/23 17:46:32;;;;;;;7.28;3.95;;;;;;;-5.59;94.52;103124.69;10409361;28;20060;-87
2023/01/23 17:51:34;;;;;;;8.48;5.22;;;;;;;-5.54;94.43;103123.38;10410465;28;20076;-86
2023/01/23 17:56:36;;;;;;;8.90;3.83;;;;;;;-5.60;94.00;103121.16;10409281;28;20069;-88
2023/01/23 18:01:39;;;;;;;7.10;4.20;;;;;;;-5.53;94.19;103127.78;10409221;28;20069;-86
2023/01/23 18:06:41;;;;;;;8.27;4.07;;;;;;;-5.59;94.23;103132.69;10408448;28;20056;-85
2023/01/23 18:11:50;;;;;;;9.00;4.25;;;;;;;-5.68;94.07;103128.06;10408199;28;20065;-86
2023/01/23 18:16:53;;;;;;;7.75;4.55;;;;;;;-5.74;93.85;103129.34;10407320;28;20046;-86
2023/01/23 18:21:56;;;;;;;9.35;3.58;;;;;;;-5.76;94.63;103124.09;10408408;28;20416;-87
2023/01/23 18:27:23;;;;;;;6.45;3.22;;;;;;;-5.81;94.42;103125.44;10406861;28;20060;-87
2023/01/23 18:32:47;;;;;;;7.00;4.00;;;;;;;-5.80;94.92;103124.47;10389327;28;20045;-87
2023/01/23 18:38:06;;;;;;;6.65;3.05;;;;;;;-5.82;94.91;103118.38;10406557;28;20052;-85
2023/01/23 18:43:25;;;;;;;9.35;3.67;;;;;;;-5.82;95.46;103110.34;10406458;28;20044;-86
2023/01/23 18:48:28;;;;;;;4.13;2.65;;;;;;;-5.88;95.65;103106.31;10404076;28;20073;-87
2023/01/23 18:53:49;;;;;;;4.60;2.85;;;;;;;-5.78;95.68;103096.63;10406444;28;20057;-87
2023/01/23 18:59:10;;;;;;;5.63;3.10;;;;;;;-5.67;95.83;103092.31;10404990;28;20045;-85
2023/01/23 19:04:14;;;;;;;6.03;2.80;;;;;;;-5.64;95.56;103082.25;10406388;28;20058;-87
2023/01/23 19:09:18;;;;;;;6.10;3.13;;;;;;;-5.59;95.76;103085.41;10405162;28;20408;-87
2023/01/23 19:15:08;;;;;;;9.18;3.53;;;;;;;-5.51;95.67;103075.00;10388761;28;20527;-87
2023/01/23 19:20:31;;;;;;;7.55;3.78;;;;;;;-5.44;95.75;103066.50;10402491;28;20058;-86
2023/01/23 19:25:34;;;;;;;7.75;3.20;;;;;;;-5.50;95.33;103066.00;10387778;28;20041;-86
2023/01/23 19:30:37;;;;;;;7.55;3.65;;;;;;;-5.51;94.83;103066.97;10405810;28;20041;-87
2023/01/23 19:35:40;;;;;;;9.27;3.70;;;;;;;-5.48;95.25;103055.19;10405016;28;20050;-87
2023/01/23 19:40:43;;;;;;;8.32;3.92;;;;;;;-5.46;95.32;103061.25;10403904;28;20440;-88
2023/01/23 19:45:48;;;;;;;8.27;2.92;;;;;;;-5.53;95.38;103038.63;10404550;28;20048;-86
2023/01/23 19:50:51;;;;;;;6.15;3.60;;;;;;;-5.58;95.13;103048.81;10403278;28;20048;-87
2023/01/23 19:55:55;;;;;;;7.43;3.03;;;;;;;-5.58;95.55;103054.16;10405051;28;20045;-87
2023/01/23 20:00:58;;;;;;;5.97;3.25;;;;;;;-5.48;94.90;103047.16;10404230;28;20037;-86
2023/01/23 20:06:00;;;;;;;6.45;3.17;;;;;;;-5.34;95.44;103036.25;10406602;28;20058;-86
2023/01/23 20:11:02;;;;;;;6.30;3.03;;;;;;;-5.42;95.37;103043.16;10422084;28;20046;-86
2023/01/23 20:16:19;;;;;;;4.57;2.88;;;;;;;-5.38;95.38;103024.09;10419087;28;20081;-86
2023/01/23 20:21:23;;;;;;;6.93;2.78;;;;;;;-5.27;94.70;103026.78;10416917;28;20041;-85
2023/01/23 20:26:25;;;;;;;7.63;3.28;;;;;;;-5.26;95.09;103036.50;10417577;28;20051;-86
2023/01/23 20:31:27;;;;;;;8.15;3.42;;;;;;;-5.37;94.83;103022.25;10414300;28;20044;-87
2023/01/23 20:36:30;;;;;;;8.68;4.25;;;;;;;-5.41;95.02;103018.09;10414512;28;20056;-86
2023/01/23 20:41:33;;;;;;;7.32;3.92;;;;;;;-5.38;95.08;103009.81;10405290;28;20064;-87
2023/01/23 20:46:35;;;;;;;14.65;4.88;;;;;;;-5.48;95.36;103001.69;10404766;28;20046;-87
2023/01/23 20:51:37;;;;;;;6.10;3.28;;;;;;;-5.53;95.93;102990.50;10405553;28;20389;-87
2023/01/23 20:56:40;;;;;;;8.90;2.90;;;;;;;-5.58;96.05;102977.44;10404928;28;20068;-86
2023/01/23 21:07:04;;;;;;;8.23;3.50;;;;;;;-5.51;96.35;102992.06;10403282;28;20046;-87
2023/01/23 21:12:06;;;;;;;11.60;3.95;;;;;;;-5.47;96.28;102979.31;10407085;28;20042;-87
2023/01/23 21:17:08;;;;;;;6.93;3.10;;;;;;;-5.49;96.71;102968.72;10410045;28;20042;-86
2023/01/23 21:22:11;;;;;;;8.75;3.20;;;;;;;-5.45;96.70;102974.69;10411096;28;20046;-87
2023/01/23 21:27:13;;;;;;;10.70;3.03;;;;;;;-5.47;96.47;102963.25;10410688;28;20063;-85
2023/01/23 21:32:15;;;;;;;4.93;2.45;;;;;;;-5.53;96.47;102956.56;10411104;28;20400;-86
2023/01/23 21:37:18;;;;;;;4.22;2.35;;;;;;;-5.60;95.58;102959.81;10410662;28;20056;-86
2023/01/23 21:42:20;;;;;;;2.70;1.75;;;;;;;-5.80;95.76;102975.56;10407530;28;20046;-87
2023/01/23 21:47:22;;;;;;;5.93;2.25;;;;;;;-6.00;95.50;102968.25;10409526;28;20050;-86
2023/01/23 21:52:26;;;;;;;5.50;2.88;;;;;;;-6.13;95.45;102954.97;10408251;28;20041;-86
2023/01/23 21:57:28;;;;;;;9.73;4.38;;;;;;;-6.19;95.20;102947.41;10409408;28;20065;-87
2023/01/23 22:02:30;;;;;;;5.55;3.40;;;;;;;-6.32;94.54;102949.28;10407294;28;20057;-87
2023/01/23 22:07:32;;;;;;;7.97;3.60;;;;;;;-6.38;93.83;102950.59;10407293;28;20049;-87
2023/01/23 22:12:34;;;;;;;9.45;3.70;;;;;;;-6.48;94.06;102946.03;10408109;28;20045;-86
2023/01/23 22:17:37;;;;;;;8.45;3.95;;;;;;;-6.61;93.26;102967.44;10407893;28;20061;-88
2023/01/23 22:22:39;;;;;;;5.97;2.97;;;;;;;-6.75;92.88;102956.94;10406259;28;20225;-86
2023/01/23 22:27:41;;;;;;;3.33;1.95;;;;;;;-6.93;92.95;102963.63;10407807;28;20073;-86
2023/01/23 22:32:44;;;;;;;4.93;2.65;;;;;;;-7.07;92.78;102964.59;10407292;28;20416;-86
2023/01/23 22:37:46;;;;;;;7.38;3.45;;;;;;;-7.11;92.63;102955.97;10406932;28;20052;-86
2023/01/23 22:42:48;;;;;;;1.83;1.60;;;;;;;-7.16;92.38;102955.41;10406832;28;20401;-85
2023/01/23 22:47:50;;;;;;;6.30;2.85;;;;;;;-7.07;92.50;102957.44;10406810;28;20049;-86
2023/01/23 22:52:53;;;;;;;6.20;3.17;;;;;;;-6.97;92.40;102956.78;10406576;28;20050;-88
2023/01/23 22:57:55;;;;;;;5.65;2.58;;;;;;;-6.93;93.04;102951.13;10406542;28;20050;-88
2023/01/23 23:02:57;;;;;;;5.65;2.05;;;;;;;-6.88;92.41;102940.09;10406124;28;20045;-85
2023/01/23 23:07:59;;;;;;;4.97;2.40;;;;;;;-7.00;92.58;102945.34;10406592;28;20053;-86
2023/01/23 23:13:01;;;;;;;3.92;2.33;;;;;;;-7.04;91.41;102933.19;10404765;28;20049;-87
2023/01/23 23:18:04;;;;;;;4.80;2.30;;;;;;;-6.96;92.03;102919.28;10405404;28;20515;-86
2023/01/23 23:23:06;;;;;;;5.65;3.05;;;;;;;-6.99;91.98;102909.69;10405064;28;20461;-86
2023/01/23 23:28:08;;;;;;;5.53;3.03;;;;;;;-6.96;91.72;102903.28;10404735;28;20074;-87
2023/01/23 23:33:10;;;;;;;4.15;2.55;;;;;;;-6.95;91.91;102886.31;10404012;28;20080;-86
2023/01/23 23:38:13;;;;;;;3.92;2.53;;;;;;;-6.96;91.20;102870.41;10404028;28;20050;-86
2023/01/23 23:43:15;;;;;;;2.05;1.95;;;;;;;-6.94;91.73;102869.34;10403855;28;20413;-85
2023/01/23 23:48:17;;;;;;;3.58;2.58;;;;;;;-6.91;91.70;102863.78;10404500;28;20179;-85